sensor_id;sensor_type;location;lat;lon;timestamp;P1;durP1;ratioP1;P2;durP2;ratioP2
23169;SDS011;11753;43.144;24.714;2022-12-18T00:01:01;11.93;;;7.07;;
23169;SDS011;11753;43.144;24.714;2022-12-18T00:02:06;10.48;;;6.90;;
23169;SDS011;11753;43.144;24.714;2022-12-18T00:03:07;10.18;;;6.80;;
23169;SDS011;11753;43.144;24.714;2022-12-18T00:04:14;10.75;;;6.93;;
23169;SDS011;11753;43.144;24.714;2022-12-18T00:05:19;11.93;;;7.45;;
23169;SDS011;11753;43.144;24.714;2022-12-18T00:06:20;11.60;;;7.22;;
23169;SDS011;11753;43.144;24.714;2022-12-18T00:07:22;11.63;;;7.57;;
23169;SDS011;11753;43.144;24.714;2022-12-18T00:08:23;10.80;;;6.93;;
23169;SDS011;11753;43.144;24.714;2022-12-18T00:09:23;9.80;;;6.57;;
23169;SDS011;11753;43.144;24.714;2022-12-18T00:10:25;11.90;;;7.60;;
23169;SDS011;11753;43.144;24.714;2022-12-18T00:11:28;11.90;;;7.57;;
23169;SDS011;11753;43.144;24.714;2022-12-18T00:12:30;12.98;;;7.50;;
23169;SDS011;11753;43.144;24.714;2022-12-18T00:13:30;13.05;;;7.85;;
23169;SDS011;11753;43.144;24.714;2022-12-18T00:14:31;13.20;;;8.15;;
23169;SDS011;11753;43.144;24.714;2022-12-18T00:15:33;12.27;;;7.78;;
23169;SDS011;11753;43.144;24.714;2022-12-18T00:16:34;11.13;;;7.30;;
23169;SDS011;11753;43.144;24.714;2022-12-18T00:17:36;12.10;;;7.82;;
23169;SDS011;11753;43.144;24.714;2022-12-18T00:18:37;11.90;;;7.72;;
23169;SDS011;11753;43.144;24.714;2022-12-18T00:19:38;11.23;;;7.38;;
23169;SDS011;11753;43.144;24.714;2022-12-18T00:20:39;11.32;;;7.13;;
23169;SDS011;11753;43.144;24.714;2022-12-18T00:21:40;14.60;;;8.20;;
23169;SDS011;11753;43.144;24.714;2022-12-18T00:22:42;11.00;;;7.50;;
23169;SDS011;11753;43.144;24.714;2022-12-18T00:23:43;11.98;;;7.63;;
23169;SDS011;11753;43.144;24.714;2022-12-18T00:24:47;12.65;;;7.93;;
23169;SDS011;11753;43.144;24.714;2022-12-18T00:25:48;13.60;;;8.25;;
23169;SDS011;11753;43.144;24.714;2022-12-18T00:26:49;12.05;;;7.88;;
23169;SDS011;11753;43.144;24.714;2022-12-18T00:27:49;13.32;;;7.75;;
23169;SDS011;11753;43.144;24.714;2022-12-18T00:28:50;12.45;;;7.78;;
23169;SDS011;11753;43.144;24.714;2022-12-18T00:29:52;12.73;;;7.80;;
23169;SDS011;11753;43.144;24.714;2022-12-18T00:32:07;16.05;;;8.45;;
23169;SDS011;11753;43.144;24.714;2022-12-18T00:33:08;18.77;;;10.80;;
23169;SDS011;11753;43.144;24.714;2022-12-18T00:34:09;15.27;;;9.77;;
23169;SDS011;11753;43.144;24.714;2022-12-18T00:35:11;16.88;;;9.23;;
23169;SDS011;11753;43.144;24.714;2022-12-18T00:36:13;14.63;;;9.23;;
23169;SDS011;11753;43.144;24.714;2022-12-18T00:37:16;14.35;;;8.57;;
23169;SDS011;11753;43.144;24.714;2022-12-18T00:38:17;15.32;;;9.05;;
23169;SDS011;11753;43.144;24.714;2022-12-18T00:39:17;14.73;;;9.02;;
23169;SDS011;11753;43.144;24.714;2022-12-18T00:40:18;13.48;;;8.43;;
23169;SDS011;11753;43.144;24.714;2022-12-18T00:41:19;13.02;;;8.20;;
23169;SDS011;11753;43.144;24.714;2022-12-18T00:42:40;12.57;;;8.25;;
23169;SDS011;11753;43.144;24.714;2022-12-18T00:43:56;13.90;;;8.45;;
23169;SDS011;11753;43.144;24.714;2022-12-18T00:44:57;12.15;;;7.93;;
23169;SDS011;11753;43.144;24.714;2022-12-18T00:45:58;13.40;;;7.72;;
23169;SDS011;11753;43.144;24.714;2022-12-18T00:46:59;13.80;;;8.52;;
23169;SDS011;11753;43.144;24.714;2022-12-18T00:48:00;11.18;;;7.60;;
23169;SDS011;11753;43.144;24.714;2022-12-18T00:49:02;13.60;;;7.85;;
23169;SDS011;11753;43.144;24.714;2022-12-18T00:50:03;11.50;;;7.70;;
23169;SDS011;11753;43.144;24.714;2022-12-18T00:51:05;12.70;;;8.02;;
23169;SDS011;11753;43.144;24.714;2022-12-18T00:52:07;12.45;;;7.97;;
23169;SDS011;11753;43.144;24.714;2022-12-18T00:53:08;15.13;;;8.90;;
23169;SDS011;11753;43.144;24.714;2022-12-18T00:54:09;13.95;;;8.13;;
23169;SDS011;11753;43.144;24.714;2022-12-18T00:55:10;12.88;;;8.73;;
23169;SDS011;11753;43.144;24.714;2022-12-18T00:56:12;12.77;;;8.43;;
23169;SDS011;11753;43.144;24.714;2022-12-18T00:57:15;15.00;;;8.57;;
23169;SDS011;11753;43.144;24.714;2022-12-18T00:58:16;14.43;;;8.77;;
23169;SDS011;11753;43.144;24.714;2022-12-18T00:59:18;13.63;;;8.18;;
23169;SDS011;11753;43.144;24.714;2022-12-18T01:00:19;12.88;;;8.10;;
23169;SDS011;11753;43.144;24.714;2022-12-18T01:01:20;14.10;;;8.30;;
23169;SDS011;11753;43.144;24.714;2022-12-18T01:02:21;13.57;;;8.48;;
23169;SDS011;11753;43.144;24.714;2022-12-18T01:03:22;13.60;;;8.30;;
23169;SDS011;11753;43.144;24.714;2022-12-18T01:04:24;12.95;;;8.43;;
23169;SDS011;11753;43.144;24.714;2022-12-18T01:05:24;14.63;;;8.30;;
23169;SDS011;11753;43.144;24.714;2022-12-18T01:06:26;13.70;;;9.07;;
23169;SDS011;11753;43.144;24.714;2022-12-18T01:07:27;15.73;;;9.45;;
23169;SDS011;11753;43.144;24.714;2022-12-18T01:08:27;13.90;;;8.60;;
23169;SDS011;11753;43.144;24.714;2022-12-18T01:09:28;15.70;;;8.82;;
23169;SDS011;11753;43.144;24.714;2022-12-18T01:10:29;14.90;;;9.38;;
23169;SDS011;11753;43.144;24.714;2022-12-18T01:11:30;14.60;;;9.25;;
23169;SDS011;11753;43.144;24.714;2022-12-18T01:12:32;15.23;;;9.98;;
23169;SDS011;11753;43.144;24.714;2022-12-18T01:13:33;15.18;;;9.52;;
23169;SDS011;11753;43.144;24.714;2022-12-18T01:14:34;13.43;;;8.85;;
23169;SDS011;11753;43.144;24.714;2022-12-18T01:15:35;14.35;;;9.00;;
23169;SDS011;11753;43.144;24.714;2022-12-18T01:16:36;14.98;;;9.27;;
23169;SDS011;11753;43.144;24.714;2022-12-18T01:17:37;14.30;;;9.20;;
23169;SDS011;11753;43.144;24.714;2022-12-18T01:18:38;13.05;;;9.13;;
23169;SDS011;11753;43.144;24.714;2022-12-18T01:19:39;14.70;;;9.85;;
23169;SDS011;11753;43.144;24.714;2022-12-18T01:20:40;16.25;;;9.82;;
23169;SDS011;11753;43.144;24.714;2022-12-18T01:21:42;17.02;;;10.18;;
23169;SDS011;11753;43.144;24.714;2022-12-18T01:22:43;16.75;;;10.23;;
23169;SDS011;11753;43.144;24.714;2022-12-18T01:23:44;14.05;;;9.48;;
23169;SDS011;11753;43.144;24.714;2022-12-18T01:24:45;16.15;;;9.98;;
23169;SDS011;11753;43.144;24.714;2022-12-18T01:25:45;15.32;;;9.32;;
23169;SDS011;11753;43.144;24.714;2022-12-18T01:26:46;13.90;;;9.00;;
23169;SDS011;11753;43.144;24.714;2022-12-18T01:27:47;14.15;;;8.98;;
23169;SDS011;11753;43.144;24.714;2022-12-18T01:28:48;15.20;;;9.30;;
23169;SDS011;11753;43.144;24.714;2022-12-18T01:29:49;12.77;;;8.93;;
23169;SDS011;11753;43.144;24.714;2022-12-18T01:30:50;13.10;;;8.52;;
23169;SDS011;11753;43.144;24.714;2022-12-18T01:31:54;11.52;;;8.48;;
23169;SDS011;11753;43.144;24.714;2022-12-18T01:32:56;14.23;;;8.40;;
23169;SDS011;11753;43.144;24.714;2022-12-18T01:34:00;13.13;;;8.52;;
23169;SDS011;11753;43.144;24.714;2022-12-18T01:35:02;13.52;;;8.80;;
23169;SDS011;11753;43.144;24.714;2022-12-18T01:36:03;13.52;;;8.75;;
23169;SDS011;11753;43.144;24.714;2022-12-18T01:37:05;14.88;;;9.05;;
23169;SDS011;11753;43.144;24.714;2022-12-18T01:38:06;15.30;;;9.25;;
23169;SDS011;11753;43.144;24.714;2022-12-18T01:39:09;16.05;;;9.23;;
23169;SDS011;11753;43.144;24.714;2022-12-18T01:40:12;17.92;;;10.02;;
23169;SDS011;11753;43.144;24.714;2022-12-18T01:41:15;17.40;;;10.05;;
23169;SDS011;11753;43.144;24.714;2022-12-18T01:42:17;14.88;;;9.63;;
23169;SDS011;11753;43.144;24.714;2022-12-18T01:43:18;16.40;;;10.50;;
23169;SDS011;11753;43.144;24.714;2022-12-18T01:45:54;16.83;;;9.73;;
23169;SDS011;11753;43.144;24.714;2022-12-18T01:46:55;14.40;;;9.65;;
23169;SDS011;11753;43.144;24.714;2022-12-18T01:48:00;14.20;;;9.50;;
23169;SDS011;11753;43.144;24.714;2022-12-18T01:49:06;18.08;;;10.15;;
23169;SDS011;11753;43.144;24.714;2022-12-18T01:50:15;13.57;;;9.25;;
23169;SDS011;11753;43.144;24.714;2022-12-18T01:51:18;15.73;;;10.00;;
23169;SDS011;11753;43.144;24.714;2022-12-18T01:52:19;15.18;;;9.95;;
23169;SDS011;11753;43.144;24.714;2022-12-18T01:53:22;16.40;;;10.43;;
23169;SDS011;11753;43.144;24.714;2022-12-18T01:54:24;17.05;;;9.63;;
23169;SDS011;11753;43.144;24.714;2022-12-18T01:55:26;13.98;;;9.35;;
23169;SDS011;11753;43.144;24.714;2022-12-18T01:56:31;14.05;;;9.15;;
23169;SDS011;11753;43.144;24.714;2022-12-18T01:57:32;17.27;;;9.45;;
23169;SDS011;11753;43.144;24.714;2022-12-18T01:58:41;16.30;;;10.48;;
23169;SDS011;11753;43.144;24.714;2022-12-18T01:59:45;17.10;;;10.00;;
23169;SDS011;11753;43.144;24.714;2022-12-18T02:00:50;15.32;;;10.27;;
23169;SDS011;11753;43.144;24.714;2022-12-18T02:01:51;16.83;;;10.38;;
23169;SDS011;11753;43.144;24.714;2022-12-18T02:02:53;16.92;;;9.90;;
23169;SDS011;11753;43.144;24.714;2022-12-18T02:03:54;17.05;;;10.98;;
23169;SDS011;11753;43.144;24.714;2022-12-18T02:04:55;17.50;;;10.85;;
23169;SDS011;11753;43.144;24.714;2022-12-18T02:13:07;16.63;;;11.23;;
23169;SDS011;11753;43.144;24.714;2022-12-18T02:14:34;17.52;;;10.90;;
23169;SDS011;11753;43.144;24.714;2022-12-18T02:16:59;21.27;;;12.68;;
23169;SDS011;11753;43.144;24.714;2022-12-18T02:20:47;17.02;;;10.25;;
23169;SDS011;11753;43.144;24.714;2022-12-18T02:21:56;19.70;;;11.30;;
23169;SDS011;11753;43.144;24.714;2022-12-18T02:23:19;19.10;;;11.50;;
23169;SDS011;11753;43.144;24.714;2022-12-18T02:26:00;16.58;;;11.25;;
23169;SDS011;11753;43.144;24.714;2022-12-18T02:27:04;17.77;;;12.75;;
23169;SDS011;11753;43.144;24.714;2022-12-18T02:28:09;19.90;;;12.15;;
23169;SDS011;11753;43.144;24.714;2022-12-18T02:29:18;17.70;;;11.52;;
23169;SDS011;11753;43.144;24.714;2022-12-18T02:30:29;19.05;;;11.65;;
23169;SDS011;11753;43.144;24.714;2022-12-18T02:31:39;17.17;;;10.90;;
23169;SDS011;11753;43.144;24.714;2022-12-18T02:32:45;19.40;;;11.88;;
23169;SDS011;11753;43.144;24.714;2022-12-18T02:33:51;17.60;;;11.38;;
23169;SDS011;11753;43.144;24.714;2022-12-18T02:34:56;19.02;;;11.88;;
23169;SDS011;11753;43.144;24.714;2022-12-18T02:35:58;18.95;;;11.50;;
23169;SDS011;11753;43.144;24.714;2022-12-18T02:37:00;18.55;;;11.65;;
23169;SDS011;11753;43.144;24.714;2022-12-18T02:38:05;16.15;;;11.38;;
23169;SDS011;11753;43.144;24.714;2022-12-18T02:39:07;19.20;;;11.25;;
23169;SDS011;11753;43.144;24.714;2022-12-18T02:40:10;19.30;;;12.43;;
23169;SDS011;11753;43.144;24.714;2022-12-18T02:41:13;19.08;;;11.48;;
23169;SDS011;11753;43.144;24.714;2022-12-18T02:42:16;18.42;;;11.70;;
23169;SDS011;11753;43.144;24.714;2022-12-18T02:43:19;20.17;;;12.02;;
23169;SDS011;11753;43.144;24.714;2022-12-18T02:44:20;17.25;;;11.15;;
23169;SDS011;11753;43.144;24.714;2022-12-18T02:45:21;18.10;;;11.40;;
23169;SDS011;11753;43.144;24.714;2022-12-18T02:47:36;18.40;;;11.18;;
23169;SDS011;11753;43.144;24.714;2022-12-18T02:48:39;18.88;;;12.02;;
23169;SDS011;11753;43.144;24.714;2022-12-18T02:49:44;18.75;;;11.77;;
23169;SDS011;11753;43.144;24.714;2022-12-18T02:51:13;17.85;;;11.13;;
23169;SDS011;11753;43.144;24.714;2022-12-18T02:54:39;19.60;;;12.05;;
23169;SDS011;11753;43.144;24.714;2022-12-18T03:02:26;18.30;;;12.25;;
23169;SDS011;11753;43.144;24.714;2022-12-18T03:04:42;18.45;;;11.77;;
23169;SDS011;11753;43.144;24.714;2022-12-18T03:05:50;20.35;;;13.07;;
23169;SDS011;11753;43.144;24.714;2022-12-18T03:06:57;21.88;;;12.70;;
23169;SDS011;11753;43.144;24.714;2022-12-18T03:08:03;21.48;;;13.05;;
23169;SDS011;11753;43.144;24.714;2022-12-18T03:09:16;18.95;;;12.55;;
23169;SDS011;11753;43.144;24.714;2022-12-18T03:10:35;19.20;;;12.43;;
23169;SDS011;11753;43.144;24.714;2022-12-18T03:11:40;20.08;;;12.70;;
23169;SDS011;11753;43.144;24.714;2022-12-18T03:13:04;23.27;;;13.15;;
23169;SDS011;11753;43.144;24.714;2022-12-18T03:14:09;20.48;;;13.38;;
23169;SDS011;11753;43.144;24.714;2022-12-18T03:16:37;19.73;;;12.38;;
23169;SDS011;11753;43.144;24.714;2022-12-18T03:17:44;20.02;;;12.65;;
23169;SDS011;11753;43.144;24.714;2022-12-18T03:20:06;23.17;;;13.55;;
23169;SDS011;11753;43.144;24.714;2022-12-18T03:21:13;20.65;;;12.43;;
23169;SDS011;11753;43.144;24.714;2022-12-18T03:22:17;20.58;;;12.52;;
23169;SDS011;11753;43.144;24.714;2022-12-18T03:23:19;20.73;;;12.80;;
23169;SDS011;11753;43.144;24.714;2022-12-18T03:24:25;21.10;;;11.95;;
23169;SDS011;11753;43.144;24.714;2022-12-18T03:25:30;17.67;;;11.52;;
23169;SDS011;11753;43.144;24.714;2022-12-18T03:26:33;18.25;;;11.77;;
23169;SDS011;11753;43.144;24.714;2022-12-18T03:27:36;19.70;;;12.80;;
23169;SDS011;11753;43.144;24.714;2022-12-18T03:28:51;17.23;;;11.38;;
23169;SDS011;11753;43.144;24.714;2022-12-18T03:30:01;19.08;;;12.30;;
23169;SDS011;11753;43.144;24.714;2022-12-18T03:31:09;18.58;;;11.60;;
23169;SDS011;11753;43.144;24.714;2022-12-18T03:32:19;22.50;;;12.88;;
23169;SDS011;11753;43.144;24.714;2022-12-18T03:33:46;19.02;;;12.27;;
23169;SDS011;11753;43.144;24.714;2022-12-18T03:34:53;21.27;;;13.48;;
23169;SDS011;11753;43.144;24.714;2022-12-18T03:35:59;19.30;;;12.63;;
23169;SDS011;11753;43.144;24.714;2022-12-18T03:37:01;16.48;;;11.15;;
23169;SDS011;11753;43.144;24.714;2022-12-18T03:38:02;19.33;;;11.73;;
23169;SDS011;11753;43.144;24.714;2022-12-18T03:39:04;18.85;;;12.00;;
23169;SDS011;11753;43.144;24.714;2022-12-18T03:40:05;19.50;;;12.30;;
23169;SDS011;11753;43.144;24.714;2022-12-18T03:42:29;17.50;;;10.98;;
23169;SDS011;11753;43.144;24.714;2022-12-18T03:43:49;16.90;;;10.88;;
23169;SDS011;11753;43.144;24.714;2022-12-18T03:45:02;21.00;;;12.32;;
23169;SDS011;11753;43.144;24.714;2022-12-18T03:46:14;19.65;;;12.23;;
23169;SDS011;11753;43.144;24.714;2022-12-18T03:47:25;24.70;;;15.25;;
23169;SDS011;11753;43.144;24.714;2022-12-18T03:48:33;21.27;;;13.57;;
23169;SDS011;11753;43.144;24.714;2022-12-18T03:50:00;20.63;;;12.82;;
23169;SDS011;11753;43.144;24.714;2022-12-18T03:54:55;17.60;;;11.50;;
23169;SDS011;11753;43.144;24.714;2022-12-18T03:55:58;18.30;;;12.02;;
23169;SDS011;11753;43.144;24.714;2022-12-18T03:57:04;19.50;;;12.48;;
23169;SDS011;11753;43.144;24.714;2022-12-18T03:58:11;17.65;;;11.88;;
23169;SDS011;11753;43.144;24.714;2022-12-18T03:59:16;18.30;;;11.90;;
23169;SDS011;11753;43.144;24.714;2022-12-18T04:00:19;18.65;;;12.45;;
23169;SDS011;11753;43.144;24.714;2022-12-18T04:01:22;20.13;;;12.20;;
23169;SDS011;11753;43.144;24.714;2022-12-18T04:02:28;19.63;;;12.30;;
23169;SDS011;11753;43.144;24.714;2022-12-18T04:03:31;18.13;;;12.10;;
23169;SDS011;11753;43.144;24.714;2022-12-18T04:04:35;21.33;;;12.63;;
23169;SDS011;11753;43.144;24.714;2022-12-18T04:05:38;18.73;;;11.88;;
23169;SDS011;11753;43.144;24.714;2022-12-18T04:06:42;19.40;;;12.52;;
23169;SDS011;11753;43.144;24.714;2022-12-18T04:07:45;19.38;;;12.68;;
23169;SDS011;11753;43.144;24.714;2022-12-18T04:08:48;20.45;;;13.02;;
23169;SDS011;11753;43.144;24.714;2022-12-18T04:09:50;19.27;;;12.40;;
23169;SDS011;11753;43.144;24.714;2022-12-18T04:10:54;18.30;;;12.68;;
23169;SDS011;11753;43.144;24.714;2022-12-18T04:11:55;21.17;;;12.82;;
23169;SDS011;11753;43.144;24.714;2022-12-18T04:12:56;19.13;;;12.85;;
23169;SDS011;11753;43.144;24.714;2022-12-18T04:13:58;19.95;;;12.65;;
23169;SDS011;11753;43.144;24.714;2022-12-18T04:14:59;20.13;;;12.85;;
23169;SDS011;11753;43.144;24.714;2022-12-18T04:16:00;21.15;;;12.73;;
23169;SDS011;11753;43.144;24.714;2022-12-18T04:17:02;20.30;;;12.20;;
23169;SDS011;11753;43.144;24.714;2022-12-18T04:18:03;20.15;;;13.07;;
23169;SDS011;11753;43.144;24.714;2022-12-18T04:19:04;20.88;;;13.10;;
23169;SDS011;11753;43.144;24.714;2022-12-18T04:20:05;20.70;;;12.55;;
23169;SDS011;11753;43.144;24.714;2022-12-18T04:21:06;21.63;;;13.23;;
23169;SDS011;11753;43.144;24.714;2022-12-18T04:22:09;22.52;;;13.10;;
23169;SDS011;11753;43.144;24.714;2022-12-18T04:23:11;23.23;;;13.73;;
23169;SDS011;11753;43.144;24.714;2022-12-18T04:24:12;23.23;;;14.77;;
23169;SDS011;11753;43.144;24.714;2022-12-18T04:25:13;22.27;;;14.02;;
23169;SDS011;11753;43.144;24.714;2022-12-18T04:26:14;21.08;;;13.45;;
23169;SDS011;11753;43.144;24.714;2022-12-18T04:27:15;23.38;;;13.85;;
23169;SDS011;11753;43.144;24.714;2022-12-18T04:28:16;19.52;;;13.40;;
23169;SDS011;11753;43.144;24.714;2022-12-18T04:29:17;19.50;;;13.07;;
23169;SDS011;11753;43.144;24.714;2022-12-18T04:30:18;20.52;;;12.77;;
23169;SDS011;11753;43.144;24.714;2022-12-18T04:31:19;18.65;;;12.73;;
23169;SDS011;11753;43.144;24.714;2022-12-18T04:32:20;18.80;;;12.38;;
23169;SDS011;11753;43.144;24.714;2022-12-18T04:33:21;18.60;;;13.18;;
23169;SDS011;11753;43.144;24.714;2022-12-18T04:34:22;18.45;;;12.93;;
23169;SDS011;11753;43.144;24.714;2022-12-18T04:35:23;22.58;;;13.25;;
23169;SDS011;11753;43.144;24.714;2022-12-18T04:36:23;21.88;;;14.43;;
23169;SDS011;11753;43.144;24.714;2022-12-18T04:37:28;23.27;;;15.13;;
23169;SDS011;11753;43.144;24.714;2022-12-18T04:38:29;29.48;;;18.75;;
23169;SDS011;11753;43.144;24.714;2022-12-18T04:39:30;32.58;;;18.95;;
23169;SDS011;11753;43.144;24.714;2022-12-18T04:40:31;29.92;;;18.65;;
23169;SDS011;11753;43.144;24.714;2022-12-18T04:41:32;30.77;;;19.42;;
23169;SDS011;11753;43.144;24.714;2022-12-18T04:42:33;26.05;;;16.30;;
23169;SDS011;11753;43.144;24.714;2022-12-18T04:43:34;26.95;;;17.23;;
23169;SDS011;11753;43.144;24.714;2022-12-18T04:44:35;22.98;;;15.48;;
23169;SDS011;11753;43.144;24.714;2022-12-18T04:45:36;23.95;;;15.90;;
23169;SDS011;11753;43.144;24.714;2022-12-18T04:46:37;24.20;;;16.02;;
23169;SDS011;11753;43.144;24.714;2022-12-18T04:47:38;26.58;;;16.33;;
23169;SDS011;11753;43.144;24.714;2022-12-18T04:48:38;22.88;;;15.35;;
23169;SDS011;11753;43.144;24.714;2022-12-18T04:49:39;22.75;;;15.40;;
23169;SDS011;11753;43.144;24.714;2022-12-18T04:50:40;19.98;;;14.00;;
23169;SDS011;11753;43.144;24.714;2022-12-18T04:51:41;22.35;;;14.20;;
23169;SDS011;11753;43.144;24.714;2022-12-18T04:52:41;19.42;;;13.80;;
23169;SDS011;11753;43.144;24.714;2022-12-18T04:53:42;24.20;;;15.23;;
23169;SDS011;11753;43.144;24.714;2022-12-18T04:54:43;21.50;;;15.35;;
23169;SDS011;11753;43.144;24.714;2022-12-18T04:55:44;20.98;;;14.60;;
23169;SDS011;11753;43.144;24.714;2022-12-18T04:56:46;20.63;;;13.85;;
23169;SDS011;11753;43.144;24.714;2022-12-18T04:57:47;18.70;;;13.80;;
23169;SDS011;11753;43.144;24.714;2022-12-18T04:58:47;22.13;;;15.38;;
23169;SDS011;11753;43.144;24.714;2022-12-18T04:59:49;20.92;;;15.40;;
23169;SDS011;11753;43.144;24.714;2022-12-18T05:00:53;27.10;;;17.77;;
23169;SDS011;11753;43.144;24.714;2022-12-18T05:01:54;39.50;;;25.58;;
23169;SDS011;11753;43.144;24.714;2022-12-18T05:02:55;36.13;;;23.35;;
23169;SDS011;11753;43.144;24.714;2022-12-18T05:03:56;30.65;;;20.67;;
23169;SDS011;11753;43.144;24.714;2022-12-18T05:04:57;30.00;;;19.05;;
23169;SDS011;11753;43.144;24.714;2022-12-18T05:05:58;27.08;;;18.10;;
23169;SDS011;11753;43.144;24.714;2022-12-18T05:06:59;26.50;;;19.15;;
23169;SDS011;11753;43.144;24.714;2022-12-18T05:08:00;25.55;;;16.83;;
23169;SDS011;11753;43.144;24.714;2022-12-18T05:09:00;21.85;;;15.05;;
23169;SDS011;11753;43.144;24.714;2022-12-18T05:10:01;21.83;;;14.75;;
23169;SDS011;11753;43.144;24.714;2022-12-18T05:11:06;22.23;;;14.93;;
23169;SDS011;11753;43.144;24.714;2022-12-18T05:12:09;19.13;;;12.63;;
23169;SDS011;11753;43.144;24.714;2022-12-18T05:13:10;22.00;;;13.55;;
23169;SDS011;11753;43.144;24.714;2022-12-18T05:14:10;19.40;;;13.75;;
23169;SDS011;11753;43.144;24.714;2022-12-18T05:15:11;20.90;;;14.50;;
23169;SDS011;11753;43.144;24.714;2022-12-18T05:16:12;21.20;;;14.30;;
23169;SDS011;11753;43.144;24.714;2022-12-18T05:17:14;24.63;;;14.65;;
23169;SDS011;11753;43.144;24.714;2022-12-18T05:18:15;21.55;;;13.82;;
23169;SDS011;11753;43.144;24.714;2022-12-18T05:19:16;23.45;;;15.27;;
23169;SDS011;11753;43.144;24.714;2022-12-18T05:20:17;21.25;;;13.80;;
23169;SDS011;11753;43.144;24.714;2022-12-18T05:21:19;25.35;;;15.90;;
23169;SDS011;11753;43.144;24.714;2022-12-18T05:22:20;21.90;;;14.98;;
23169;SDS011;11753;43.144;24.714;2022-12-18T05:23:21;23.80;;;16.48;;
23169;SDS011;11753;43.144;24.714;2022-12-18T05:24:23;26.15;;;15.60;;
23169;SDS011;11753;43.144;24.714;2022-12-18T05:25:27;24.02;;;15.43;;
23169;SDS011;11753;43.144;24.714;2022-12-18T05:26:28;22.25;;;15.35;;
23169;SDS011;11753;43.144;24.714;2022-12-18T05:27:29;22.77;;;15.90;;
23169;SDS011;11753;43.144;24.714;2022-12-18T05:28:31;21.95;;;14.82;;
23169;SDS011;11753;43.144;24.714;2022-12-18T05:29:33;20.30;;;14.23;;
23169;SDS011;11753;43.144;24.714;2022-12-18T05:30:34;22.52;;;15.50;;
23169;SDS011;11753;43.144;24.714;2022-12-18T05:31:35;24.35;;;15.52;;
23169;SDS011;11753;43.144;24.714;2022-12-18T05:32:36;23.70;;;15.43;;
23169;SDS011;11753;43.144;24.714;2022-12-18T05:33:37;24.83;;;16.13;;
23169;SDS011;11753;43.144;24.714;2022-12-18T05:34:40;24.13;;;15.95;;
23169;SDS011;11753;43.144;24.714;2022-12-18T05:35:41;23.58;;;15.45;;
23169;SDS011;11753;43.144;24.714;2022-12-18T05:36:44;24.50;;;15.25;;
23169;SDS011;11753;43.144;24.714;2022-12-18T05:37:45;22.42;;;15.57;;
23169;SDS011;11753;43.144;24.714;2022-12-18T05:38:46;24.38;;;16.10;;
23169;SDS011;11753;43.144;24.714;2022-12-18T05:39:47;25.38;;;15.48;;
23169;SDS011;11753;43.144;24.714;2022-12-18T05:40:48;26.55;;;16.00;;
23169;SDS011;11753;43.144;24.714;2022-12-18T05:41:50;26.58;;;17.48;;
23169;SDS011;11753;43.144;24.714;2022-12-18T05:42:51;24.70;;;16.55;;
23169;SDS011;11753;43.144;24.714;2022-12-18T05:43:52;27.55;;;17.48;;
23169;SDS011;11753;43.144;24.714;2022-12-18T05:44:53;25.45;;;16.25;;
23169;SDS011;11753;43.144;24.714;2022-12-18T05:45:54;24.40;;;16.25;;
23169;SDS011;11753;43.144;24.714;2022-12-18T05:46:56;29.20;;;18.55;;
23169;SDS011;11753;43.144;24.714;2022-12-18T05:47:57;30.20;;;19.02;;
23169;SDS011;11753;43.144;24.714;2022-12-18T05:49:01;25.25;;;16.33;;
23169;SDS011;11753;43.144;24.714;2022-12-18T05:50:02;23.55;;;16.08;;
23169;SDS011;11753;43.144;24.714;2022-12-18T05:51:04;23.17;;;15.02;;
23169;SDS011;11753;43.144;24.714;2022-12-18T05:52:07;25.13;;;16.58;;
23169;SDS011;11753;43.144;24.714;2022-12-18T05:53:08;24.90;;;15.70;;
23169;SDS011;11753;43.144;24.714;2022-12-18T05:54:09;24.45;;;16.67;;
23169;SDS011;11753;43.144;24.714;2022-12-18T05:55:11;31.08;;;19.48;;
23169;SDS011;11753;43.144;24.714;2022-12-18T05:56:15;24.17;;;16.30;;
23169;SDS011;11753;43.144;24.714;2022-12-18T05:57:19;27.55;;;18.00;;
23169;SDS011;11753;43.144;24.714;2022-12-18T05:58:20;28.80;;;18.83;;
23169;SDS011;11753;43.144;24.714;2022-12-18T05:59:21;30.23;;;17.88;;
23169;SDS011;11753;43.144;24.714;2022-12-18T06:00:22;27.17;;;17.08;;
23169;SDS011;11753;43.144;24.714;2022-12-18T06:01:25;25.55;;;16.35;;
23169;SDS011;11753;43.144;24.714;2022-12-18T06:02:29;24.92;;;16.00;;
23169;SDS011;11753;43.144;24.714;2022-12-18T06:03:30;51.78;;;32.90;;
23169;SDS011;11753;43.144;24.714;2022-12-18T06:04:31;59.00;;;38.83;;
23169;SDS011;11753;43.144;24.714;2022-12-18T06:05:35;71.05;;;44.75;;
23169;SDS011;11753;43.144;24.714;2022-12-18T06:06:38;50.33;;;30.25;;
23169;SDS011;11753;43.144;24.714;2022-12-18T06:07:39;41.47;;;24.23;;
23169;SDS011;11753;43.144;24.714;2022-12-18T06:08:39;83.50;;;44.90;;
23169;SDS011;11753;43.144;24.714;2022-12-18T06:09:40;318.73;;;181.13;;
23169;SDS011;11753;43.144;24.714;2022-12-18T06:10:41;209.40;;;120.50;;
23169;SDS011;11753;43.144;24.714;2022-12-18T06:11:42;158.13;;;94.85;;
23169;SDS011;11753;43.144;24.714;2022-12-18T06:12:43;131.52;;;78.05;;
23169;SDS011;11753;43.144;24.714;2022-12-18T06:13:45;49.55;;;30.83;;
23169;SDS011;11753;43.144;24.714;2022-12-18T06:14:46;45.42;;;28.42;;
23169;SDS011;11753;43.144;24.714;2022-12-18T06:15:47;42.55;;;27.55;;
23169;SDS011;11753;43.144;24.714;2022-12-18T06:16:50;39.10;;;24.83;;
23169;SDS011;11753;43.144;24.714;2022-12-18T06:17:52;36.05;;;23.48;;
23169;SDS011;11753;43.144;24.714;2022-12-18T06:18:56;35.17;;;21.90;;
23169;SDS011;11753;43.144;24.714;2022-12-18T06:19:58;45.10;;;28.20;;
23169;SDS011;11753;43.144;24.714;2022-12-18T06:21:00;101.50;;;66.70;;
23169;SDS011;11753;43.144;24.714;2022-12-18T06:22:01;43.42;;;26.92;;
23169;SDS011;11753;43.144;24.714;2022-12-18T06:23:02;33.95;;;22.45;;
23169;SDS011;11753;43.144;24.714;2022-12-18T06:24:04;34.83;;;23.25;;
23169;SDS011;11753;43.144;24.714;2022-12-18T06:25:05;32.47;;;22.15;;
23169;SDS011;11753;43.144;24.714;2022-12-18T06:26:11;30.90;;;21.48;;
23169;SDS011;11753;43.144;24.714;2022-12-18T06:27:12;27.65;;;19.88;;
23169;SDS011;11753;43.144;24.714;2022-12-18T06:28:14;24.35;;;16.33;;
23169;SDS011;11753;43.144;24.714;2022-12-18T06:29:15;29.63;;;16.40;;
23169;SDS011;11753;43.144;24.714;2022-12-18T06:30:15;23.73;;;14.93;;
23169;SDS011;11753;43.144;24.714;2022-12-18T06:31:16;26.05;;;17.48;;
23169;SDS011;11753;43.144;24.714;2022-12-18T06:32:17;23.52;;;14.48;;
23169;SDS011;11753;43.144;24.714;2022-12-18T06:33:19;30.48;;;20.45;;
23169;SDS011;11753;43.144;24.714;2022-12-18T06:34:19;37.28;;;24.52;;
23169;SDS011;11753;43.144;24.714;2022-12-18T06:35:20;34.38;;;22.45;;
23169;SDS011;11753;43.144;24.714;2022-12-18T06:36:21;29.48;;;20.58;;
23169;SDS011;11753;43.144;24.714;2022-12-18T06:37:23;39.17;;;25.17;;
23169;SDS011;11753;43.144;24.714;2022-12-18T06:38:27;31.77;;;21.23;;
23169;SDS011;11753;43.144;24.714;2022-12-18T06:39:28;33.10;;;20.98;;
23169;SDS011;11753;43.144;24.714;2022-12-18T06:40:29;35.15;;;24.80;;